Time;durP1;ratioP1;P1;durP2;ratioP2;P2;SDS_P1;SDS_P2;PMS_P1;PMS_P2;Temp;Humidity;BMP_temperature;BMP_pressure;BME280_temperature;BME280_humidity;BME280_pressure;Samples;Min_cycle;Max_cycle;Signal;HPM_P1;HPM_P2
2021/05/18 00:02:03;;;;;;;0.30;0.30;;;;;;;;;;4942567;29;20195;-67
2021/05/18 00:04:30;;;;;;;0.00;0.00;;;;;;;;;;4941321;28;20217;-67
2021/05/18 00:06:58;;;;;;;2.13;1.07;;;;;;;;;;4942079;28;20183;-67
2021/05/18 00:12:10;;;;;;;1.17;0.93;;;;;;;;;;4942951;29;21086;-67
2021/05/18 00:14:37;;;;;;;0.20;0.20;;;;;;;;;;4941911;29;20201;-67
2021/05/18 00:17:04;;;;;;;2.43;2.03;;;;;;;;;;4940994;28;21111;-67
2021/05/18 00:19:30;;;;;;;0.17;0.17;;;;;;;;;;4943129;28;20226;-67
2021/05/18 00:21:57;;;;;;;11.03;2.10;;;;;;;;;;4940944;28;20287;-67
2021/05/18 00:24:24;;;;;;;8.20;0.67;;;;;;;;;;4939642;28;20229;-67
2021/05/18 00:26:50;;;;;;;0.00;0.00;;;;;;;;;;4937497;29;20538;-67
2021/05/18 00:29:17;;;;;;;0.03;0.03;;;;;;;;;;4937264;29;20294;-67
2021/05/18 00:31:44;;;;;;;1.80;0.53;;;;;;;;;;4940102;29;20210;-67
2021/05/18 00:34:10;;;;;;;2.83;2.40;;;;;;;;;;4938438;29;20214;-67
2021/05/18 00:36:37;;;;;;;4.03;1.13;;;;;;;;;;4935071;28;20193;-67
2021/05/18 00:39:04;;;;;;;0.00;0.00;;;;;;;;;;4937329;29;20218;-67
2021/05/18 00:41:31;;;;;;;0.33;0.33;;;;;;;;;;4936685;29;20657;-65
2021/05/18 00:43:58;;;;;;;0.47;0.40;;;;;;;;;;4936801;28;20194;-64
2021/05/18 00:46:25;;;;;;;0.67;0.67;;;;;;;;;;4937046;28;20193;-64
2021/05/18 00:48:58;;;;;;;14.13;3.93;;;;;;;;;;4936725;28;20206;-64
2021/05/18 00:51:25;;;;;;;0.87;0.87;;;;;;;;;;4940789;28;20183;-65
2021/05/18 00:53:54;;;;;;;0.00;0.00;;;;;;;;;;4940358;29;20225;-65
2021/05/18 00:56:33;;;;;;;0.00;0.00;;;;;;;;;;4935590;28;20223;-65
2021/05/18 00:59:01;;;;;;;0.00;0.00;;;;;;;;;;4941424;28;20202;-65
2021/05/18 01:01:28;;;;;;;2.40;1.70;;;;;;;;;;4940677;29;20422;-65
2021/05/18 01:03:55;;;;;;;0.00;0.00;;;;;;;;;;4940993;28;20195;-64
2021/05/18 01:06:29;;;;;;;0.00;0.00;;;;;;;;;;4937600;29;20195;-66
2021/05/18 01:08:59;;;;;;;0.00;0.00;;;;;;;;;;4939541;29;20196;-65
2021/05/18 01:11:27;;;;;;;5.30;0.37;;;;;;;;;;4937576;28;20183;-65
2021/05/18 01:13:59;;;;;;;1.53;0.50;;;;;;;;;;4940071;28;20246;-65
2021/05/18 01:16:29;;;;;;;8.47;2.13;;;;;;;;;;4940090;28;20209;-65
2021/05/18 01:18:56;;;;;;;7.13;1.03;;;;;;;;;;4937056;29;20210;-65
2021/05/18 01:21:24;;;;;;;0.00;0.00;;;;;;;;;;4936895;29;20197;-65
2021/05/18 01:23:51;;;;;;;0.30;0.20;;;;;;;;;;4940681;29;20230;-65
2021/05/18 01:26:18;;;;;;;0.00;0.00;;;;;;;;;;4941740;29;20417;-65
2021/05/18 01:28:45;;;;;;;8.93;1.23;;;;;;;;;;4942450;29;20191;-65
2021/05/18 01:31:12;;;;;;;0.00;0.00;;;;;;;;;;4922372;29;20179;-65
2021/05/18 01:33:39;;;;;;;1.53;1.43;;;;;;;;;;4941962;29;20648;-65
2021/05/18 01:36:11;;;;;;;0.00;0.00;;;;;;;;;;4940633;29;20195;-65
2021/05/18 01:38:44;;;;;;;6.77;2.43;;;;;;;;;;4942724;29;20187;-65
2021/05/18 01:43:57;;;;;;;3.50;1.80;;;;;;;;;;4941644;29;20234;-65
2021/05/18 01:46:26;;;;;;;1.53;1.30;;;;;;;;;;4941877;29;20281;-65
2021/05/18 01:48:59;;;;;;;2.33;1.60;;;;;;;;;;4941276;29;20191;-65
2021/05/18 01:51:27;;;;;;;1.07;1.00;;;;;;;;;;4933860;29;20203;-65
2021/05/18 01:53:54;;;;;;;0.00;0.00;;;;;;;;;;4937828;28;20948;-65
2021/05/18 01:56:37;;;;;;;0.00;0.00;;;;;;;;;;4937033;28;20217;-65
2021/05/18 01:59:07;;;;;;;0.40;0.40;;;;;;;;;;4936924;29;20262;-65
2021/05/18 02:01:34;;;;;;;0.00;0.00;;;;;;;;;;4939117;29;20371;-65
2021/05/18 02:04:00;;;;;;;0.00;0.00;;;;;;;;;;4939430;28;20183;-65
2021/05/18 02:06:28;;;;;;;0.00;0.00;;;;;;;;;;4941148;28;20191;-65
2021/05/18 02:08:55;;;;;;;8.60;3.10;;;;;;;;;;4944461;29;20523;-65
2021/05/18 02:11:21;;;;;;;1.70;1.40;;;;;;;;;;4945131;29;20179;-65
2021/05/18 02:13:52;;;;;;;1.37;1.27;;;;;;;;;;4943810;29;20636;-65
2021/05/18 02:16:25;;;;;;;0.20;0.20;;;;;;;;;;4943300;29;20187;-65
2021/05/18 02:26:45;;;;;;;0.20;0.20;;;;;;;;;;4939361;29;20186;-65
2021/05/18 02:29:11;;;;;;;1.03;0.90;;;;;;;;;;4937674;28;20791;-65
2021/05/18 02:31:38;;;;;;;0.00;0.00;;;;;;;;;;4938007;28;20494;-65
2021/05/18 02:34:05;;;;;;;0.47;0.47;;;;;;;;;;4941760;28;20187;-65
2021/05/18 02:36:31;;;;;;;15.53;1.20;;;;;;;;;;4941954;29;20183;-65
2021/05/18 02:38:58;;;;;;;2.23;0.63;;;;;;;;;;4941014;29;20191;-65
2021/05/18 02:41:24;;;;;;;0.73;0.73;;;;;;;;;;4940248;28;20259;-65
2021/05/18 02:44:02;;;;;;;2.27;0.83;;;;;;;;;;4942888;29;20210;-65
2021/05/18 02:51:31;;;;;;;0.00;0.00;;;;;;;;;;4937875;28;20190;-65
2021/05/18 02:53:58;;;;;;;25.33;1.70;;;;;;;;;;4939053;29;20580;-65
2021/05/18 02:56:49;;;;;;;0.20;0.20;;;;;;;;;;4936570;28;20812;-65
2021/05/18 02:59:15;;;;;;;0.00;0.00;;;;;;;;;;4934862;29;20194;-65
2021/05/18 03:01:42;;;;;;;5.00;1.30;;;;;;;;;;4941355;29;20191;-65
2021/05/18 03:04:09;;;;;;;0.63;0.63;;;;;;;;;;4940101;29;20190;-65
2021/05/18 03:06:36;;;;;;;2.00;1.03;;;;;;;;;;4943171;28;20202;-65
2021/05/18 03:09:09;;;;;;;3.60;1.13;;;;;;;;;;4949115;28;20205;-65
2021/05/18 03:11:36;;;;;;;0.00;0.00;;;;;;;;;;4942598;29;20241;-65
2021/05/18 03:14:03;;;;;;;0.87;0.50;;;;;;;;;;4945879;29;20267;-65
2021/05/18 03:16:30;;;;;;;5.30;3.90;;;;;;;;;;4945852;28;20667;-65
2021/05/18 03:18:56;;;;;;;4.90;2.20;;;;;;;;;;4946772;28;20869;-65
2021/05/18 03:21:23;;;;;;;11.13;1.80;;;;;;;;;;4942901;28;20215;-65
2021/05/18 03:23:50;;;;;;;0.00;0.00;;;;;;;;;;4939287;29;20183;-65
2021/05/18 03:26:17;;;;;;;0.30;0.30;;;;;;;;;;4939284;28;20252;-65
2021/05/18 03:28:46;;;;;;;0.30;0.30;;;;;;;;;;4942181;28;21056;-65
2021/05/18 03:34:27;;;;;;;0.00;0.00;;;;;;;;;;4942833;29;20214;-65
2021/05/18 03:36:44;;;;;;;0.30;0.30;;;;;;;;;;4941226;28;20466;-65
2021/05/18 03:39:10;;;;;;;0.00;0.00;;;;;;;;;;4940237;28;20207;-65
2021/05/18 03:44:45;;;;;;;1.47;1.37;;;;;;;;;;4939394;29;20687;-66
2021/05/18 04:03:47;;;;;;;0.00;0.00;;;;;;;;;;4937367;29;20248;-65
2021/05/18 04:12:02;;;;;;;0.00;0.00;;;;;;;;;;4936808;28;20781;-65
2021/05/18 04:17:13;;;;;;;2.13;0.47;;;;;;;;;;4941772;29;20194;-65
2021/05/18 04:19:45;;;;;;;0.13;0.13;;;;;;;;;;4939941;29;20249;-65
2021/05/18 04:25:00;;;;;;;2.50;1.00;;;;;;;;;;4942855;29;20281;-65
2021/05/18 04:38:49;;;;;;;0.00;0.00;;;;;;;;;;4938277;28;20266;-66
2021/05/18 04:52:07;;;;;;;22.93;0.60;;;;;;;;;;4944036;29;20559;-66
2021/05/18 05:00:08;;;;;;;1.23;1.13;;;;;;;;;;4936279;28;20558;-66
2021/05/18 05:15:39;;;;;;;2.97;1.23;;;;;;;;;;4935197;29;20199;-66
2021/05/18 05:18:06;;;;;;;3.13;1.03;;;;;;;;;;4937936;29;20183;-66
2021/05/18 05:20:33;;;;;;;6.07;1.23;;;;;;;;;;4940598;28;20198;-66
2021/05/18 05:23:00;;;;;;;14.87;0.67;;;;;;;;;;4940127;28;20345;-66
2021/05/18 05:25:26;;;;;;;0.00;0.00;;;;;;;;;;4939770;28;20199;-66
2021/05/18 05:27:53;;;;;;;1.93;1.83;;;;;;;;;;4936441;28;20248;-65
2021/05/18 05:30:19;;;;;;;0.00;0.00;;;;;;;;;;4939406;28;20319;-66
2021/05/18 05:32:46;;;;;;;1.20;0.20;;;;;;;;;;4939755;28;20210;-66
2021/05/18 05:35:13;;;;;;;4.43;1.60;;;;;;;;;;4939734;28;20190;-65
2021/05/18 05:37:39;;;;;;;3.50;3.20;;;;;;;;;;4941535;29;20218;-65
2021/05/18 05:40:07;;;;;;;1.07;0.43;;;;;;;;;;4940839;29;20202;-65
2021/05/18 05:42:33;;;;;;;4.13;0.50;;;;;;;;;;4942205;28;20239;-66
2021/05/18 05:45:00;;;;;;;0.00;0.00;;;;;;;;;;4940227;28;20295;-66
2021/05/18 05:47:26;;;;;;;0.00;0.00;;;;;;;;;;4941111;28;20265;-66
2021/05/18 05:49:54;;;;;;;0.83;0.83;;;;;;;;;;4940650;28;20194;-66
2021/05/18 05:52:22;;;;;;;0.47;0.20;;;;;;;;;;4945926;28;20612;-66
2021/05/18 05:54:50;;;;;;;1.23;1.20;;;;;;;;;;4945078;29;20213;-66
2021/05/18 05:57:20;;;;;;;0.10;0.10;;;;;;;;;;4942119;28;20898;-66
2021/05/18 05:59:47;;;;;;;0.00;0.00;;;;;;;;;;4942307;28;20820;-66
2021/05/18 12:59:59;;;;;;;2.20;1.47;;;;;;;;;;5097054;27;20572;-63
2021/05/18 13:02:32;;;;;;;3.00;1.07;;;;;;;;;;5089328;28;20182;-63
2021/05/18 13:05:06;;;;;;;0.00;0.00;;;;;;;;;;5092176;28;20188;-63
2021/05/18 13:07:33;;;;;;;1.30;0.77;;;;;;;;;;5099609;27;20188;-64
2021/05/18 13:10:23;;;;;;;5.03;1.70;;;;;;;;;;5091346;28;20220;-63
2021/05/18 13:13:00;;;;;;;0.00;0.00;;;;;;;;;;5089205;28;20200;-64
2021/05/18 13:15:27;;;;;;;2.83;2.03;;;;;;;;;;5090746;28;20219;-64
2021/05/18 13:17:57;;;;;;;0.00;0.00;;;;;;;;;;5091452;28;20239;-64
2021/05/18 13:20:25;;;;;;;5.70;2.13;;;;;;;;;;5091513;28;20180;-63
2021/05/18 13:22:59;;;;;;;0.00;0.00;;;;;;;;;;5090176;28;20188;-64
2021/05/18 13:28:11;;;;;;;2.17;1.30;;;;;;;;;;5090830;28;20200;-63
2021/05/18 13:30:38;;;;;;;2.33;0.97;;;;;;;;;;5089236;28;20196;-64
2021/05/18 13:33:07;;;;;;;7.83;1.10;;;;;;;;;;5073105;28;20595;-62
2021/05/18 13:35:35;;;;;;;1.97;0.90;;;;;;;;;;5086141;28;20289;-63
2021/05/18 13:38:02;;;;;;;0.33;0.33;;;;;;;;;;5086420;28;20198;-63
2021/05/18 13:40:28;;;;;;;2.20;0.87;;;;;;;;;;5088015;28;20170;-64
2021/05/18 13:42:55;;;;;;;2.50;1.00;;;;;;;;;;5086123;28;20181;-63
2021/05/18 13:45:25;;;;;;;1.57;0.63;;;;;;;;;;5089886;28;20182;-63
2021/05/18 13:47:54;;;;;;;3.23;0.53;;;;;;;;;;5091022;28;20272;-63
2021/05/18 13:50:21;;;;;;;1.90;0.23;;;;;;;;;;5086972;28;20204;-64
2021/05/18 13:52:48;;;;;;;5.40;1.03;;;;;;;;;;5084087;28;20182;-63
2021/05/18 13:55:14;;;;;;;3.10;1.23;;;;;;;;;;5085166;28;21350;-63
2021/05/18 13:57:41;;;;;;;3.90;0.77;;;;;;;;;;5098437;28;20192;-63
2021/05/18 14:00:09;;;;;;;2.50;1.33;;;;;;;;;;5084284;28;20200;-63
2021/05/18 14:02:40;;;;;;;2.40;1.53;;;;;;;;;;5081250;28;20191;-63
2021/05/18 14:05:08;;;;;;;2.30;0.67;;;;;;;;;;5084072;28;20185;-64
2021/05/18 14:10:34;;;;;;;2.70;0.73;;;;;;;;;;5078141;28;20190;-63
2021/05/18 14:13:01;;;;;;;5.23;1.73;;;;;;;;;;5075726;28;20192;-64
2021/05/18 14:15:27;;;;;;;1.20;0.90;;;;;;;;;;5070945;28;20256;-63
2021/05/18 14:17:54;;;;;;;11.00;0.70;;;;;;;;;;5074435;28;20227;-64
2021/05/18 14:20:20;;;;;;;1.23;0.80;;;;;;;;;;5068929;28;20241;-63
2021/05/18 14:22:47;;;;;;;6.23;1.03;;;;;;;;;;5071999;28;20187;-63
2021/05/18 14:25:13;;;;;;;3.43;0.40;;;;;;;;;;5070276;28;20197;-63
2021/05/18 14:27:41;;;;;;;1.43;0.47;;;;;;;;;;5071927;28;20188;-64
2021/05/18 14:30:12;;;;;;;6.43;1.23;;;;;;;;;;5075701;28;20174;-63
2021/05/18 14:32:41;;;;;;;2.07;1.93;;;;;;;;;;5071894;28;20182;-63
2021/05/18 14:35:08;;;;;;;5.47;0.80;;;;;;;;;;5069035;28;20189;-63
2021/05/18 14:37:35;;;;;;;5.50;1.53;;;;;;;;;;5075903;28;20168;-63
2021/05/18 14:43:02;;;;;;;5.00;1.43;;;;;;;;;;5068575;28;20336;-63
2021/05/18 14:45:38;;;;;;;1.53;0.33;;;;;;;;;;5078787;28;20191;-63
2021/05/18 14:56:04;;;;;;;1.03;0.50;;;;;;;;;;5072328;28;22002;-63
2021/05/18 14:58:31;;;;;;;1.80;1.13;;;;;;;;;;5068193;28;20214;-63
2021/05/18 15:00:57;;;;;;;0.00;0.00;;;;;;;;;;5065869;28;20183;-63
2021/05/18 15:03:24;;;;;;;2.30;0.47;;;;;;;;;;5070697;28;20178;-63
2021/05/18 15:05:51;;;;;;;6.27;3.07;;;;;;;;;;5076599;28;20187;-63
2021/05/18 15:08:18;;;;;;;1.83;1.10;;;;;;;;;;5076519;28;20280;-63
2021/05/18 15:10:47;;;;;;;2.70;1.60;;;;;;;;;;5076573;28;20185;-63
2021/05/18 15:13:13;;;;;;;3.53;1.77;;;;;;;;;;5075313;28;20179;-63
2021/05/18 15:15:40;;;;;;;0.50;0.47;;;;;;;;;;5072397;28;20976;-63
2021/05/18 15:18:08;;;;;;;6.80;1.70;;;;;;;;;;5075092;28;20203;-64
2021/05/18 15:20:35;;;;;;;1.10;0.90;;;;;;;;;;5072452;28;20391;-63
2021/05/18 15:23:01;;;;;;;2.20;0.27;;;;;;;;;;5073349;28;20188;-63
2021/05/18 15:25:28;;;;;;;1.30;0.77;;;;;;;;;;5066560;28;20184;-63
2021/05/18 15:27:55;;;;;;;0.83;0.83;;;;;;;;;;5076132;28;20195;-63
2021/05/18 15:30:21;;;;;;;1.33;0.70;;;;;;;;;;5065630;28;20190;-63
2021/05/18 15:32:48;;;;;;;1.43;0.50;;;;;;;;;;5067160;28;20177;-64
2021/05/18 15:35:14;;;;;;;3.30;0.67;;;;;;;;;;5073230;28;20366;-64
2021/05/18 15:37:44;;;;;;;8.37;1.40;;;;;;;;;;5075072;28;20184;-63
2021/05/18 15:40:10;;;;;;;2.57;0.53;;;;;;;;;;5063595;28;20210;-63
2021/05/18 15:42:37;;;;;;;1.10;0.90;;;;;;;;;;5072157;28;20179;-63
2021/05/18 15:45:04;;;;;;;1.60;1.20;;;;;;;;;;5076922;28;20816;-63
2021/05/18 15:47:32;;;;;;;6.43;1.17;;;;;;;;;;5066139;28;20299;-63
2021/05/18 15:49:59;;;;;;;0.00;0.00;;;;;;;;;;5072004;28;20184;-63
2021/05/18 15:52:26;;;;;;;0.30;0.30;;;;;;;;;;5072750;28;20180;-64
2021/05/18 15:54:53;;;;;;;1.93;0.23;;;;;;;;;;5066627;28;20184;-63
2021/05/18 15:57:19;;;;;;;2.87;0.73;;;;;;;;;;5074804;28;20283;-63
2021/05/18 15:59:49;;;;;;;3.30;1.03;;;;;;;;;;5068038;28;20943;-63
2021/05/18 16:02:16;;;;;;;3.17;0.47;;;;;;;;;;5071401;28;20521;-63
2021/05/18 16:04:43;;;;;;;2.70;2.53;;;;;;;;;;5072706;28;20659;-63
2021/05/18 16:07:13;;;;;;;6.87;3.80;;;;;;;;;;5076401;28;20201;-63
2021/05/18 16:09:40;;;;;;;0.73;0.70;;;;;;;;;;5063272;28;20435;-63
2021/05/18 16:12:07;;;;;;;7.43;1.33;;;;;;;;;;5061422;28;20901;-64
2021/05/18 16:14:35;;;;;;;0.23;0.20;;;;;;;;;;5069268;28;20214;-63
2021/05/18 16:17:02;;;;;;;10.93;1.60;;;;;;;;;;5070104;28;20240;-63
2021/05/18 16:19:28;;;;;;;18.13;3.20;;;;;;;;;;5069371;28;20209;-63
2021/05/18 16:21:55;;;;;;;0.87;0.70;;;;;;;;;;5065445;28;20197;-64
2021/05/18 16:24:24;;;;;;;0.37;0.37;;;;;;;;;;5072518;28;20198;-63
2021/05/18 16:26:53;;;;;;;4.53;0.83;;;;;;;;;;5067245;28;20287;-63
2021/05/18 16:29:19;;;;;;;3.13;0.70;;;;;;;;;;5074769;28;20189;-63
2021/05/18 16:31:47;;;;;;;4.23;0.50;;;;;;;;;;5075488;28;20750;-63
2021/05/18 16:34:14;;;;;;;9.67;1.37;;;;;;;;;;5071969;28;20174;-63
2021/05/18 16:36:40;;;;;;;2.53;0.97;;;;;;;;;;5070525;28;20183;-63
2021/05/18 16:39:09;;;;;;;5.93;1.10;;;;;;;;;;5070573;28;20199;-64
2021/05/18 16:41:39;;;;;;;2.20;0.50;;;;;;;;;;5080154;28;20206;-64
2021/05/18 16:44:06;;;;;;;2.00;0.90;;;;;;;;;;5072889;28;20277;-63
2021/05/18 16:46:33;;;;;;;0.43;0.23;;;;;;;;;;5070076;28;20207;-64
2021/05/18 16:49:00;;;;;;;0.20;0.10;;;;;;;;;;5068617;28;20181;-63
2021/05/18 16:51:27;;;;;;;14.63;9.43;;;;;;;;;;5067737;28;20203;-63
2021/05/18 16:53:54;;;;;;;1.60;1.60;;;;;;;;;;5068794;28;20188;-63
2021/05/18 16:56:21;;;;;;;0.67;0.33;;;;;;;;;;5067312;28;20921;-63
2021/05/18 16:58:50;;;;;;;1.17;0.40;;;;;;;;;;5066649;28;20324;-63
2021/05/18 17:01:16;;;;;;;1.73;0.40;;;;;;;;;;5069601;28;20181;-60
2021/05/18 17:03:46;;;;;;;3.73;1.40;;;;;;;;;;5068143;28;20202;-63
2021/05/18 17:06:12;;;;;;;0.57;0.40;;;;;;;;;;5070116;28;20190;-63
2021/05/18 17:08:40;;;;;;;1.23;0.43;;;;;;;;;;5073038;28;20179;-63
2021/05/18 17:11:08;;;;;;;11.80;0.70;;;;;;;;;;5076448;28;20181;-63
2021/05/18 17:13:34;;;;;;;4.80;1.50;;;;;;;;;;5066497;28;20598;-63
2021/05/18 17:16:01;;;;;;;0.00;0.00;;;;;;;;;;5073284;28;20191;-63
2021/05/18 17:18:28;;;;;;;0.97;0.60;;;;;;;;;;5068242;28;20195;-63
2021/05/18 17:20:54;;;;;;;0.40;0.40;;;;;;;;;;5072184;28;20183;-63
2021/05/18 17:23:21;;;;;;;1.53;1.13;;;;;;;;;;5071036;28;20182;-63
2021/05/18 17:25:48;;;;;;;1.33;0.60;;;;;;;;;;5072734;28;20173;-63
2021/05/18 17:28:17;;;;;;;0.23;0.23;;;;;;;;;;5072731;28;20190;-64
2021/05/18 17:30:45;;;;;;;0.17;0.17;;;;;;;;;;5072073;28;20220;-64
2021/05/18 17:33:16;;;;;;;1.07;0.40;;;;;;;;;;5073351;28;20186;-64
2021/05/18 17:35:44;;;;;;;0.00;0.00;;;;;;;;;;5073863;28;20197;-63
2021/05/18 17:38:14;;;;;;;2.83;0.83;;;;;;;;;;5078688;28;20243;-63
2021/05/18 17:40:43;;;;;;;2.33;0.53;;;;;;;;;;5074376;28;20406;-64
2021/05/18 17:43:12;;;;;;;2.10;0.50;;;;;;;;;;5077415;28;20182;-63
2021/05/18 17:45:40;;;;;;;2.00;1.27;;;;;;;;;;5079010;28;20235;-63
2021/05/18 17:48:08;;;;;;;0.00;0.00;;;;;;;;;;5080637;28;20203;-64
2021/05/18 17:50:35;;;;;;;0.53;0.20;;;;;;;;;;5079709;28;20196;-63
2021/05/18 17:53:03;;;;;;;0.30;0.00;;;;;;;;;;5070386;28;20646;-63
2021/05/18 17:55:31;;;;;;;0.30;0.30;;;;;;;;;;5073853;28;20182;-63
2021/05/18 17:57:58;;;;;;;5.50;0.73;;;;;;;;;;5070237;28;20259;-63
2021/05/18 18:00:26;;;;;;;0.10;0.10;;;;;;;;;;5067107;28;20178;-64
2021/05/18 18:02:54;;;;;;;0.00;0.00;;;;;;;;;;5076230;28;20235;-63
2021/05/18 18:05:22;;;;;;;1.10;0.67;;;;;;;;;;5070408;28;20181;-64
2021/05/18 18:07:50;;;;;;;3.17;2.83;;;;;;;;;;5077318;28;20180;-63
2021/05/18 18:10:18;;;;;;;0.20;0.10;;;;;;;;;;5074561;28;20216;-63
2021/05/18 18:12:48;;;;;;;5.30;2.97;;;;;;;;;;5070483;28;21100;-63
2021/05/18 18:15:17;;;;;;;8.93;3.40;;;;;;;;;;5074508;28;20230;-64
2021/05/18 18:17:45;;;;;;;0.93;0.87;;;;;;;;;;5079281;28;20218;-63
2021/05/18 18:20:13;;;;;;;0.07;0.07;;;;;;;;;;5074585;28;20194;-63
2021/05/18 18:22:41;;;;;;;1.80;0.50;;;;;;;;;;5075261;28;20178;-64
2021/05/18 18:25:09;;;;;;;4.87;3.03;;;;;;;;;;5078225;28;20186;-64
2021/05/18 18:27:37;;;;;;;2.27;1.70;;;;;;;;;;5076634;28;20209;-63
2021/05/18 18:30:05;;;;;;;1.60;0.43;;;;;;;;;;5079006;28;20194;-64
2021/05/18 18:32:33;;;;;;;1.20;0.20;;;;;;;;;;5076817;28;20582;-63
2021/05/18 18:35:01;;;;;;;3.07;1.03;;;;;;;;;;5071482;28;20186;-63
2021/05/18 18:37:35;;;;;;;3.87;0.63;;;;;;;;;;5073903;28;20978;-63
2021/05/18 18:40:03;;;;;;;0.33;0.33;;;;;;;;;;5080354;28;20306;-63
2021/05/18 18:42:31;;;;;;;2.00;0.63;;;;;;;;;;5054753;28;20189;-63
2021/05/18 18:44:59;;;;;;;2.77;0.30;;;;;;;;;;5071615;28;20203;-63
2021/05/18 18:47:25;;;;;;;2.07;0.67;;;;;;;;;;5078537;28;20808;-63
2021/05/18 18:49:53;;;;;;;2.47;2.33;;;;;;;;;;5079428;28;20530;-63
2021/05/18 18:52:43;;;;;;;2.67;0.80;;;;;;;;;;5079400;28;20352;-63
2021/05/18 18:55:11;;;;;;;5.00;0.67;;;;;;;;;;5078477;28;20500;-64
2021/05/18 18:57:38;;;;;;;0.00;0.00;;;;;;;;;;5079163;28;20535;-64
2021/05/18 19:00:07;;;;;;;0.93;0.93;;;;;;;;;;5066840;28;20617;-64
2021/05/18 19:03:18;;;;;;;4.43;0.87;;;;;;;;;;5066485;28;20215;-64
2021/05/18 19:11:04;;;;;;;0.50;0.50;;;;;;;;;;5073124;28;20209;-65
2021/05/18 19:13:15;;;;;;;5.23;3.37;;;;;;;;;;5072169;28;20198;-64
2021/05/18 19:15:42;;;;;;;3.20;2.00;;;;;;;;;;5067308;28;20202;-64
2021/05/18 19:18:08;;;;;;;2.00;0.37;;;;;;;;;;5070249;28;20213;-65
2021/05/18 19:20:35;;;;;;;0.70;0.70;;;;;;;;;;5066026;28;20432;-64
2021/05/18 19:23:02;;;;;;;5.23;2.50;;;;;;;;;;5064558;28;20970;-64
2021/05/18 19:25:29;;;;;;;4.37;0.67;;;;;;;;;;5075718;28;20267;-64
2021/05/18 19:28:00;;;;;;;2.90;1.27;;;;;;;;;;5076676;28;20184;-64
2021/05/18 19:30:27;;;;;;;0.10;0.10;;;;;;;;;;5061874;28;20804;-64
2021/05/18 19:32:53;;;;;;;5.03;0.30;;;;;;;;;;5061410;28;20197;-64
2021/05/18 19:35:36;;;;;;;1.50;0.30;;;;;;;;;;5073068;28;21146;-64
2021/05/18 19:49:05;;;;;;;0.77;0.67;;;;;;;;;;5070294;28;20236;-65
2021/05/18 19:51:31;;;;;;;1.30;0.60;;;;;;;;;;5077610;28;20562;-65
2021/05/18 19:53:58;;;;;;;0.30;0.30;;;;;;;;;;5078364;28;20715;-64
2021/05/18 19:59:32;;;;;;;29.27;1.50;;;;;;;;;;5077734;28;20312;-65
2021/05/18 20:10:33;;;;;;;0.40;0.40;;;;;;;;;;5075240;28;20192;-65
2021/05/18 20:21:12;;;;;;;2.73;1.10;;;;;;;;;;5069905;28;20218;-65
2021/05/18 20:23:34;;;;;;;2.40;0.77;;;;;;;;;;5076495;28;20200;-64
2021/05/18 20:26:01;;;;;;;0.10;0.10;;;;;;;;;;5070749;28;20658;-64
2021/05/18 20:28:29;;;;;;;0.83;0.83;;;;;;;;;;5067385;28;20315;-65
2021/05/18 20:30:58;;;;;;;2.67;1.13;;;;;;;;;;5070020;28;20232;-65
2021/05/18 20:33:37;;;;;;;0.00;0.00;;;;;;;;;;5065957;28;20196;-65
2021/05/18 20:41:15;;;;;;;4.97;1.87;;;;;;;;;;5070821;28;20178;-65
2021/05/18 20:43:42;;;;;;;1.30;0.93;;;;;;;;;;5069373;28;20561;-65
2021/05/18 20:46:08;;;;;;;5.80;1.50;;;;;;;;;;5076539;28;20240;-65
2021/05/18 20:48:35;;;;;;;1.67;1.07;;;;;;;;;;5073160;28;20680;-64
2021/05/18 20:51:01;;;;;;;0.00;0.00;;;;;;;;;;5077119;28;20704;-63
2021/05/18 20:53:28;;;;;;;3.73;0.83;;;;;;;;;;5076625;28;20186;-64
2021/05/18 20:55:54;;;;;;;1.30;1.17;;;;;;;;;;5070464;28;20272;-63
2021/05/18 20:58:21;;;;;;;2.03;1.47;;;;;;;;;;5070263;28;20476;-64
2021/05/18 21:00:47;;;;;;;1.10;0.63;;;;;;;;;;5072981;28;20187;-64
2021/05/18 21:03:14;;;;;;;0.20;0.20;;;;;;;;;;5065372;28;20179;-64
2021/05/18 21:05:40;;;;;;;1.33;0.30;;;;;;;;;;5065040;28;20187;-64
2021/05/18 21:08:25;;;;;;;1.47;0.70;;;;;;;;;;5072364;28;20650;-64
2021/05/18 21:16:09;;;;;;;0.23;0.23;;;;;;;;;;5069615;28;20176;-65
2021/05/18 21:18:36;;;;;;;1.13;0.73;;;;;;;;;;5066317;28;20216;-64
2021/05/18 21:21:03;;;;;;;0.17;0.17;;;;;;;;;;5071167;28;20421;-64
2021/05/18 21:23:30;;;;;;;0.30;0.30;;;;;;;;;;5080115;28;20197;-65
2021/05/18 21:25:56;;;;;;;4.13;0.87;;;;;;;;;;5083613;28;20187;-64
2021/05/18 21:28:25;;;;;;;0.00;0.00;;;;;;;;;;5076202;28;20190;-64
2021/05/18 21:30:51;;;;;;;10.57;1.67;;;;;;;;;;5070915;28;20179;-64
2021/05/18 21:33:18;;;;;;;0.80;0.23;;;;;;;;;;5074500;28;20186;-64
2021/05/18 21:35:44;;;;;;;1.60;0.93;;;;;;;;;;5082055;28;20203;-64
2021/05/18 21:38:11;;;;;;;0.30;0.20;;;;;;;;;;5074325;28;20209;-64
2021/05/18 21:40:46;;;;;;;0.73;0.73;;;;;;;;;;5072923;28;20184;-64
2021/05/18 21:43:13;;;;;;;0.30;0.20;;;;;;;;;;5078974;28;20264;-64
2021/05/18 21:45:40;;;;;;;1.60;0.67;;;;;;;;;;5072622;28;20270;-65
2021/05/18 21:48:07;;;;;;;2.63;0.47;;;;;;;;;;5072031;28;20198;-64
2021/05/18 21:50:33;;;;;;;0.10;0.10;;;;;;;;;;5071409;28;20628;-64
2021/05/18 21:53:01;;;;;;;0.00;0.00;;;;;;;;;;5082877;28;20233;-65
2021/05/18 21:55:27;;;;;;;2.20;0.13;;;;;;;;;;5083792;28;20214;-65
2021/05/18 21:57:54;;;;;;;5.00;0.73;;;;;;;;;;5077794;28;20256;-65
2021/05/18 22:00:33;;;;;;;2.20;0.77;;;;;;;;;;5084048;28;20974;-65
2021/05/18 22:02:59;;;;;;;0.43;0.43;;;;;;;;;;5077021;28;20183;-64
2021/05/18 22:05:28;;;;;;;0.10;0.10;;;;;;;;;;5080309;28;20573;-64
2021/05/18 22:07:56;;;;;;;5.00;4.60;;;;;;;;;;5088606;28;20214;-63
2021/05/18 22:10:26;;;;;;;0.00;0.00;;;;;;;;;;5076583;28;20193;-64
2021/05/18 22:13:19;;;;;;;4.20;1.13;;;;;;;;;;5076826;28;20183;-64
2021/05/18 22:16:16;;;;;;;2.13;1.53;;;;;;;;;;5073426;28;20278;-64
2021/05/18 22:27:08;;;;;;;3.70;0.30;;;;;;;;;;5066121;28;20237;-64
2021/05/18 22:29:34;;;;;;;1.30;0.67;;;;;;;;;;5080031;28;20182;-64
2021/05/18 22:32:01;;;;;;;1.80;0.37;;;;;;;;;;5078296;28;20186;-65
2021/05/18 22:34:28;;;;;;;0.00;0.00;;;;;;;;;;5092309;27;20183;-64
2021/05/18 22:36:55;;;;;;;4.90;0.73;;;;;;;;;;5080796;28;20183;-64
2021/05/18 22:39:23;;;;;;;0.00;0.00;;;;;;;;;;5081552;28;20255;-63
2021/05/18 22:41:50;;;;;;;1.13;0.80;;;;;;;;;;5065397;28;20178;-64
2021/05/18 22:44:17;;;;;;;0.00;0.00;;;;;;;;;;5071442;28;20232;-64
2021/05/18 22:46:44;;;;;;;1.40;1.07;;;;;;;;;;5062445;28;20179;-63
2021/05/18 22:49:10;;;;;;;0.00;0.00;;;;;;;;;;5062596;28;20203;-63
2021/05/18 22:51:37;;;;;;;0.73;0.70;;;;;;;;;;5080998;28;20593;-64
2021/05/18 22:54:04;;;;;;;0.00;0.00;;;;;;;;;;5045983;28;20195;-64
2021/05/18 22:56:30;;;;;;;0.00;0.00;;;;;;;;;;5066810;28;20194;-64
2021/05/18 22:58:57;;;;;;;2.23;0.57;;;;;;;;;;5064354;28;20237;-64
2021/05/18 23:01:24;;;;;;;0.00;0.00;;;;;;;;;;5070195;28;20236;-63
2021/05/18 23:03:50;;;;;;;0.30;0.30;;;;;;;;;;5074635;28;20174;-63
2021/05/18 23:06:17;;;;;;;0.00;0.00;;;;;;;;;;5077450;28;20183;-63
2021/05/18 23:08:44;;;;;;;10.97;1.90;;;;;;;;;;5071433;28;20990;-63
2021/05/18 23:11:10;;;;;;;0.00;0.00;;;;;;;;;;5069900;28;21079;-63
2021/05/18 23:13:37;;;;;;;0.50;0.50;;;;;;;;;;5069262;28;20206;-63
2021/05/18 23:16:04;;;;;;;0.00;0.00;;;;;;;;;;5074627;28;20197;-63
2021/05/18 23:18:31;;;;;;;0.00;0.00;;;;;;;;;;5075272;28;20215;-63
2021/05/18 23:20:57;;;;;;;0.00;0.00;;;;;;;;;;5072563;28;20195;-64
2021/05/18 23:23:24;;;;;;;0.73;0.63;;;;;;;;;;5076145;28;20222;-62
2021/05/18 23:25:50;;;;;;;0.07;0.07;;;;;;;;;;5076250;28;20191;-64
2021/05/18 23:28:17;;;;;;;6.03;1.27;;;;;;;;;;5073828;28;20591;-63
2021/05/18 23:30:46;;;;;;;6.30;0.77;;;;;;;;;;5073602;28;20189;-63
2021/05/18 23:33:13;;;;;;;1.80;0.80;;;;;;;;;;5074986;28;20664;-63
2021/05/18 23:35:40;;;;;;;0.30;0.30;;;;;;;;;;5068998;28;20216;-63
2021/05/18 23:38:06;;;;;;;0.40;0.40;;;;;;;;;;5069706;28;20812;-63
2021/05/18 23:40:34;;;;;;;0.00;0.00;;;;;;;;;;5074438;28;20202;-63
2021/05/18 23:43:00;;;;;;;1.27;0.50;;;;;;;;;;5070743;28;20186;-63
2021/05/18 23:45:27;;;;;;;0.00;0.00;;;;;;;;;;5077888;28;20248;-64
2021/05/18 23:47:53;;;;;;;0.27;0.27;;;;;;;;;;5069297;28;20191;-63
2021/05/18 23:50:20;;;;;;;0.37;0.10;;;;;;;;;;5071442;28;20208;-63
2021/05/18 23:52:47;;;;;;;0.60;0.47;;;;;;;;;;5073026;28;20178;-63
2021/05/18 23:55:14;;;;;;;1.43;0.37;;;;;;;;;;5076767;28;20262;-64
2021/05/18 23:57:40;;;;;;;0.00;0.00;;;;;;;;;;5079389;28;20220;-64
